sensor_id;sensor_type;location;lat;lon;timestamp;pressure;altitude;pressure_sealevel;temperature;humidity
21240;BME280;10778;48.962;9.018;2023-04-08T00:02:17;99378.38;;;6.84;100.00
21240;BME280;10778;48.962;9.018;2023-04-08T00:04:43;99367.59;;;6.89;100.00
21240;BME280;10778;48.962;9.018;2023-04-08T00:07:10;99377.03;;;6.91;100.00
21240;BME280;10778;48.962;9.018;2023-04-08T00:09:36;99372.97;;;6.87;100.00
21240;BME280;10778;48.962;9.018;2023-04-08T00:12:02;99377.47;;;6.85;100.00
21240;BME280;10778;48.962;9.018;2023-04-08T00:14:28;99372.84;;;6.89;100.00
21240;BME280;10778;48.962;9.018;2023-04-08T00:16:54;99376.63;;;6.85;100.00
21240;BME280;10778;48.962;9.018;2023-04-08T00:19:20;99385.41;;;6.83;100.00
21240;BME280;10778;48.962;9.018;2023-04-08T00:21:46;99388.44;;;6.90;100.00
21240;BME280;10778;48.962;9.018;2023-04-08T00:24:12;99390.41;;;6.87;100.00
21240;BME280;10778;48.962;9.018;2023-04-08T00:26:38;99381.75;;;6.86;100.00
21240;BME280;10778;48.962;9.018;2023-04-08T00:29:05;99378.69;;;6.92;100.00
21240;BME280;10778;48.962;9.018;2023-04-08T00:31:31;99385.91;;;6.89;100.00
21240;BME280;10778;48.962;9.018;2023-04-08T00:33:57;99379.75;;;6.90;100.00
21240;BME280;10778;48.962;9.018;2023-04-08T00:36:24;99383.00;;;6.80;100.00
21240;BME280;10778;48.962;9.018;2023-04-08T00:38:52;99384.78;;;6.80;100.00
21240;BME280;10778;48.962;9.018;2023-04-08T00:41:18;99391.38;;;6.86;100.00
21240;BME280;10778;48.962;9.018;2023-04-08T00:43:44;99390.41;;;6.87;100.00
21240;BME280;10778;48.962;9.018;2023-04-08T00:46:10;99390.72;;;6.82;100.00
21240;BME280;10778;48.962;9.018;2023-04-08T00:48:36;99385.50;;;6.82;100.00
21240;BME280;10778;48.962;9.018;2023-04-08T00:51:02;99392.00;;;6.89;100.00
21240;BME280;10778;48.962;9.018;2023-04-08T00:53:29;99399.00;;;6.89;100.00
21240;BME280;10778;48.962;9.018;2023-04-08T00:55:55;99397.31;;;6.88;100.00
21240;BME280;10778;48.962;9.018;2023-04-08T00:58:21;99398.25;;;6.87;100.00
21240;BME280;10778;48.962;9.018;2023-04-08T01:00:59;99399.53;;;6.94;100.00
21240;BME280;10778;48.962;9.018;2023-04-08T01:03:44;99408.28;;;6.93;100.00
21240;BME280;10778;48.962;9.018;2023-04-08T01:06:29;99398.25;;;6.87;100.00
21240;BME280;10778;48.962;9.018;2023-04-08T01:08:59;99396.91;;;6.94;100.00
21240;BME280;10778;48.962;9.018;2023-04-08T01:11:26;99396.38;;;6.89;100.00
21240;BME280;10778;48.962;9.018;2023-04-08T01:13:55;99393.97;;;6.86;100.00
21240;BME280;10778;48.962;9.018;2023-04-08T01:16:24;99392.75;;;6.78;100.00
21240;BME280;10778;48.962;9.018;2023-04-08T01:18:52;99402.25;;;6.79;100.00
21240;BME280;10778;48.962;9.018;2023-04-08T01:21:21;99395.66;;;6.74;100.00
21240;BME280;10778;48.962;9.018;2023-04-08T01:24:05;99396.72;;;6.71;100.00
21240;BME280;10778;48.962;9.018;2023-04-08T01:26:35;99394.72;;;6.75;100.00
21240;BME280;10778;48.962;9.018;2023-04-08T01:29:02;99395.03;;;6.70;100.00
21240;BME280;10778;48.962;9.018;2023-04-08T01:31:29;99391.47;;;6.71;100.00
21240;BME280;10778;48.962;9.018;2023-04-08T01:33:58;99397.88;;;6.67;100.00
21240;BME280;10778;48.962;9.018;2023-04-08T01:36:27;99393.69;;;6.64;100.00
21240;BME280;10778;48.962;9.018;2023-04-08T01:38:54;99397.44;;;6.60;100.00
21240;BME280;10778;48.962;9.018;2023-04-08T01:41:21;99390.88;;;6.54;100.00
21240;BME280;10778;48.962;9.018;2023-04-08T01:43:47;99391.81;;;6.53;100.00
21240;BME280;10778;48.962;9.018;2023-04-08T01:46:14;99387.72;;;6.49;100.00
21240;BME280;10778;48.962;9.018;2023-04-08T01:48:40;99386.88;;;6.49;100.00
21240;BME280;10778;48.962;9.018;2023-04-08T01:51:07;99395.66;;;6.48;100.00
21240;BME280;10778;48.962;9.018;2023-04-08T01:53:35;99390.78;;;6.43;100.00
21240;BME280;10778;48.962;9.018;2023-04-08T01:56:05;99389.50;;;6.49;100.00
21240;BME280;10778;48.962;9.018;2023-04-08T01:58:37;99390.97;;;6.40;100.00
21240;BME280;10778;48.962;9.018;2023-04-08T02:01:12;99383.97;;;6.40;100.00
21240;BME280;10778;48.962;9.018;2023-04-08T02:03:42;99384.19;;;6.37;100.00
21240;BME280;10778;48.962;9.018;2023-04-08T02:06:09;99383.03;;;6.29;100.00
21240;BME280;10778;48.962;9.018;2023-04-08T02:08:35;99386.88;;;6.23;100.00
21240;BME280;10778;48.962;9.018;2023-04-08T02:11:02;99387.19;;;6.31;100.00
21240;BME280;10778;48.962;9.018;2023-04-08T02:13:30;99387.72;;;6.23;100.00
21240;BME280;10778;48.962;9.018;2023-04-08T02:16:03;99388.66;;;6.22;100.00
21240;BME280;10778;48.962;9.018;2023-04-08T02:18:33;99389.91;;;6.17;100.00
21240;BME280;10778;48.962;9.018;2023-04-08T02:21:14;99392.63;;;6.15;100.00
21240;BME280;10778;48.962;9.018;2023-04-08T02:23:41;99384.16;;;6.11;100.00
21240;BME280;10778;48.962;9.018;2023-04-08T02:26:14;99389.66;;;6.07;100.00
21240;BME280;10778;48.962;9.018;2023-04-08T02:28:41;99390.56;;;5.93;100.00
21240;BME280;10778;48.962;9.018;2023-04-08T02:31:11;99386.91;;;5.95;100.00
21240;BME280;10778;48.962;9.018;2023-04-08T02:33:44;99394.31;;;5.89;100.00
21240;BME280;10778;48.962;9.018;2023-04-08T02:36:13;99388.06;;;5.91;100.00
21240;BME280;10778;48.962;9.018;2023-04-08T02:38:40;99392.53;;;5.89;100.00
21240;BME280;10778;48.962;9.018;2023-04-08T02:41:06;99392.44;;;5.91;100.00
21240;BME280;10778;48.962;9.018;2023-04-08T02:43:32;99396.50;;;5.95;100.00
21240;BME280;10778;48.962;9.018;2023-04-08T02:45:59;99395.56;;;5.96;100.00
21240;BME280;10778;48.962;9.018;2023-04-08T02:48:29;99388.69;;;5.95;100.00
21240;BME280;10778;48.962;9.018;2023-04-08T02:50:55;99385.97;;;5.96;100.00
21240;BME280;10778;48.962;9.018;2023-04-08T02:53:22;99392.97;;;5.96;100.00
21240;BME280;10778;48.962;9.018;2023-04-08T02:55:48;99392.03;;;5.97;100.00
21240;BME280;10778;48.962;9.018;2023-04-08T02:58:15;99397.16;;;5.98;100.00
21240;BME280;10778;48.962;9.018;2023-04-08T03:00:40;99393.59;;;6.00;100.00
21240;BME280;10778;48.962;9.018;2023-04-08T03:03:06;99389.75;;;5.92;100.00
21240;BME280;10778;48.962;9.018;2023-04-08T03:05:33;99392.34;;;5.92;100.00
21240;BME280;10778;48.962;9.018;2023-04-08T03:07:59;99396.50;;;5.95;100.00
21240;BME280;10778;48.962;9.018;2023-04-08T03:10:25;99394.19;;;5.90;100.00
21240;BME280;10778;48.962;9.018;2023-04-08T03:12:51;99400.06;;;5.94;100.00
21240;BME280;10778;48.962;9.018;2023-04-08T03:15:17;99393.66;;;5.85;100.00
21240;BME280;10778;48.962;9.018;2023-04-08T03:17:43;99391.72;;;5.89;100.00
21240;BME280;10778;48.962;9.018;2023-04-08T03:20:09;99396.19;;;5.87;100.00
21240;BME280;10778;48.962;9.018;2023-04-08T03:22:36;99399.00;;;5.83;100.00
21240;BME280;10778;48.962;9.018;2023-04-08T03:25:02;99404.22;;;5.83;100.00
21240;BME280;10778;48.962;9.018;2023-04-08T03:27:29;99398.06;;;5.84;100.00
21240;BME280;10778;48.962;9.018;2023-04-08T03:29:55;99395.78;;;5.93;100.00
21240;BME280;10778;48.962;9.018;2023-04-08T03:32:22;99393.78;;;5.83;100.00
21240;BME280;10778;48.962;9.018;2023-04-08T03:34:48;99399.63;;;5.87;100.00
21240;BME280;10778;48.962;9.018;2023-04-08T03:37:16;99401.75;;;5.95;100.00
21240;BME280;10778;48.962;9.018;2023-04-08T03:39:42;99397.56;;;5.92;100.00
21240;BME280;10778;48.962;9.018;2023-04-08T03:42:08;99401.94;;;5.92;100.00
21240;BME280;10778;48.962;9.018;2023-04-08T03:44:34;99396.63;;;5.93;100.00
21240;BME280;10778;48.962;9.018;2023-04-08T03:47:00;99403.09;;;5.88;100.00
21240;BME280;10778;48.962;9.018;2023-04-08T03:49:26;99405.41;;;5.92;100.00
21240;BME280;10778;48.962;9.018;2023-04-08T03:51:52;99402.16;;;5.89;100.00
21240;BME280;10778;48.962;9.018;2023-04-08T03:54:18;99397.75;;;5.89;100.00
21240;BME280;10778;48.962;9.018;2023-04-08T03:56:44;99394.19;;;5.90;100.00
21240;BME280;10778;48.962;9.018;2023-04-08T03:59:10;99395.91;;;5.91;100.00
21240;BME280;10778;48.962;9.018;2023-04-08T04:01:36;99393.47;;;5.88;100.00
21240;BME280;10778;48.962;9.018;2023-04-08T04:04:02;99384.19;;;5.97;100.00
21240;BME280;10778;48.962;9.018;2023-04-08T04:06:29;99393.81;;;5.96;100.00
21240;BME280;10778;48.962;9.018;2023-04-08T04:08:55;99396.97;;;6.02;100.00
21240;BME280;10778;48.962;9.018;2023-04-08T04:11:21;99394.63;;;5.97;100.00
21240;BME280;10778;48.962;9.018;2023-04-08T04:13:48;99396.31;;;5.98;100.00
21240;BME280;10778;48.962;9.018;2023-04-08T04:16:14;99397.88;;;6.01;100.00
21240;BME280;10778;48.962;9.018;2023-04-08T04:18:40;99398.19;;;5.96;100.00
21240;BME280;10778;48.962;9.018;2023-04-08T04:21:06;99390.75;;;5.90;100.00
21240;BME280;10778;48.962;9.018;2023-04-08T04:23:32;99400.81;;;5.96;100.00
21240;BME280;10778;48.962;9.018;2023-04-08T04:25:58;99393.81;;;5.96;100.00
21240;BME280;10778;48.962;9.018;2023-04-08T04:28:24;99402.38;;;5.98;100.00
21240;BME280;10778;48.962;9.018;2023-04-08T04:30:50;99400.28;;;5.91;100.00
21240;BME280;10778;48.962;9.018;2023-04-08T04:33:16;99408.75;;;5.94;100.00
21240;BME280;10778;48.962;9.018;2023-04-08T04:35:42;99408.44;;;5.99;100.00
21240;BME280;10778;48.962;9.018;2023-04-08T04:38:08;99414.72;;;5.96;100.00
21240;BME280;10778;48.962;9.018;2023-04-08T04:40:37;99414.19;;;5.91;100.00
21240;BME280;10778;48.962;9.018;2023-04-08T04:43:04;99418.84;;;5.86;100.00
21240;BME280;10778;48.962;9.018;2023-04-08T04:45:30;99420.63;;;5.86;100.00
21240;BME280;10778;48.962;9.018;2023-04-08T04:47:56;99421.56;;;5.84;100.00
21240;BME280;10778;48.962;9.018;2023-04-08T04:50:22;99420.00;;;5.82;100.00
21240;BME280;10778;48.962;9.018;2023-04-08T04:52:48;99425.41;;;5.79;100.00
21240;BME280;10778;48.962;9.018;2023-04-08T04:55:14;99428.84;;;5.79;100.00
21240;BME280;10778;48.962;9.018;2023-04-08T04:57:40;99421.75;;;5.81;100.00
21240;BME280;10778;48.962;9.018;2023-04-08T05:00:07;99438.69;;;5.76;100.00
21240;BME280;10778;48.962;9.018;2023-04-08T05:02:33;99434.47;;;5.73;100.00
21240;BME280;10778;48.962;9.018;2023-04-08T05:04:59;99429.53;;;5.68;100.00
21240;BME280;10778;48.962;9.018;2023-04-08T05:07:25;99432.16;;;5.68;100.00
21240;BME280;10778;48.962;9.018;2023-04-08T05:09:52;99437.50;;;5.67;100.00
21240;BME280;10778;48.962;9.018;2023-04-08T05:12:18;99436.69;;;5.52;100.00
21240;BME280;10778;48.962;9.018;2023-04-08T05:14:47;99436.38;;;5.57;100.00
21240;BME280;10778;48.962;9.018;2023-04-08T05:17:13;99439.66;;;5.60;100.00
21240;BME280;10778;48.962;9.018;2023-04-08T05:19:39;99444.97;;;5.59;100.00
21240;BME280;10778;48.962;9.018;2023-04-08T05:22:05;99443.28;;;5.58;100.00
21240;BME280;10778;48.962;9.018;2023-04-08T05:24:31;99452.91;;;5.57;100.00
21240;BME280;10778;48.962;9.018;2023-04-08T05:26:57;99453.00;;;5.55;100.00
21240;BME280;10778;48.962;9.018;2023-04-08T05:29:23;99455.69;;;5.54;100.00
21240;BME280;10778;48.962;9.018;2023-04-08T05:31:49;99454.88;;;5.53;100.00
21240;BME280;10778;48.962;9.018;2023-04-08T05:34:15;99458.88;;;5.59;100.00
21240;BME280;10778;48.962;9.018;2023-04-08T05:36:50;99454.47;;;5.60;100.00
21240;BME280;10778;48.962;9.018;2023-04-08T05:39:17;99453.03;;;5.68;100.00
21240;BME280;10778;48.962;9.018;2023-04-08T05:41:44;99454.13;;;5.79;100.00
21240;BME280;10778;48.962;9.018;2023-04-08T05:44:11;99459.88;;;5.84;100.00
21240;BME280;10778;48.962;9.018;2023-04-08T05:46:37;99458.13;;;5.84;100.00
21240;BME280;10778;48.962;9.018;2023-04-08T05:49:03;99458.94;;;5.85;100.00
21240;BME280;10778;48.962;9.018;2023-04-08T05:51:29;99468.38;;;5.88;100.00
21240;BME280;10778;48.962;9.018;2023-04-08T05:53:55;99458.06;;;5.99;100.00
21240;BME280;10778;48.962;9.018;2023-04-08T05:56:21;99465.25;;;6.10;100.00
21240;BME280;10778;48.962;9.018;2023-04-08T05:58:47;99466.81;;;6.12;100.00
21240;BME280;10778;48.962;9.018;2023-04-08T06:01:13;99467.44;;;6.16;100.00
21240;BME280;10778;48.962;9.018;2023-04-08T06:03:39;99476.53;;;6.23;100.00
21240;BME280;10778;48.962;9.018;2023-04-08T06:06:09;99476.44;;;6.25;100.00
21240;BME280;10778;48.962;9.018;2023-04-08T06:08:36;99479.16;;;6.23;100.00
21240;BME280;10778;48.962;9.018;2023-04-08T06:11:02;99481.88;;;6.22;100.00
21240;BME280;10778;48.962;9.018;2023-04-08T06:13:31;99486.31;;;6.34;100.00
21240;BME280;10778;48.962;9.018;2023-04-08T06:15:57;99490.47;;;6.37;100.00
21240;BME280;10778;48.962;9.018;2023-04-08T06:18:23;99495.63;;;6.38;100.00
21240;BME280;10778;48.962;9.018;2023-04-08T06:20:49;99492.44;;;6.33;100.00
21240;BME280;10778;48.962;9.018;2023-04-08T06:23:15;99491.41;;;6.36;100.00
21240;BME280;10778;48.962;9.018;2023-04-08T06:25:41;99487.47;;;6.43;100.00
21240;BME280;10778;48.962;9.018;2023-04-08T06:28:07;99498.16;;;6.53;100.00
21240;BME280;10778;48.962;9.018;2023-04-08T06:30:33;99492.94;;;6.66;100.00
21240;BME280;10778;48.962;9.018;2023-04-08T06:32:59;99492.72;;;6.69;100.00
21240;BME280;10778;48.962;9.018;2023-04-08T06:35:25;99496.84;;;6.86;100.00
21240;BME280;10778;48.962;9.018;2023-04-08T06:37:52;99494.81;;;6.90;100.00
21240;BME280;10778;48.962;9.018;2023-04-08T06:40:18;99497.56;;;6.88;100.00
21240;BME280;10778;48.962;9.018;2023-04-08T06:42:44;99501.31;;;6.84;100.00
21240;BME280;10778;48.962;9.018;2023-04-08T06:45:19;99511.97;;;6.81;100.00
21240;BME280;10778;48.962;9.018;2023-04-08T06:47:45;99502.66;;;6.90;100.00
21240;BME280;10778;48.962;9.018;2023-04-08T06:50:11;99508.53;;;7.06;100.00
21240;BME280;10778;48.962;9.018;2023-04-08T06:52:37;99508.00;;;7.01;100.00
21240;BME280;10778;48.962;9.018;2023-04-08T06:55:04;99504.25;;;7.05;100.00
21240;BME280;10778;48.962;9.018;2023-04-08T06:57:30;99515.31;;;7.22;100.00
21240;BME280;10778;48.962;9.018;2023-04-08T06:59:56;99522.13;;;7.37;100.00
21240;BME280;10778;48.962;9.018;2023-04-08T07:02:22;99516.66;;;7.53;100.00
21240;BME280;10778;48.962;9.018;2023-04-08T07:04:48;99522.22;;;7.49;100.00
21240;BME280;10778;48.962;9.018;2023-04-08T07:07:14;99518.94;;;7.58;100.00
21240;BME280;10778;48.962;9.018;2023-04-08T07:09:40;99513.50;;;7.86;100.00
21240;BME280;10778;48.962;9.018;2023-04-08T07:12:11;99513.03;;;8.05;100.00
21240;BME280;10778;48.962;9.018;2023-04-08T07:14:37;99522.06;;;8.25;98.29
21240;BME280;10778;48.962;9.018;2023-04-08T07:17:03;99520.97;;;8.28;97.71
21240;BME280;10778;48.962;9.018;2023-04-08T07:19:29;99519.41;;;8.49;nan
21240;BME280;10778;48.962;9.018;2023-04-08T07:21:55;99525.19;;;8.54;95.42
21240;BME280;10778;48.962;9.018;2023-04-08T07:24:22;99522.78;;;8.51;95.52
21240;BME280;10778;48.962;9.018;2023-04-08T07:26:49;99519.06;;;8.54;95.81
21240;BME280;10778;48.962;9.018;2023-04-08T07:29:15;99516.78;;;8.49;95.35
21240;BME280;10778;48.962;9.018;2023-04-08T07:31:44;99531.41;;;8.65;96.03
21240;BME280;10778;48.962;9.018;2023-04-08T07:34:10;99526.50;;;8.60;93.82
21240;BME280;10778;48.962;9.018;2023-04-08T07:36:36;99525.22;;;8.66;94.39
21240;BME280;10778;48.962;9.018;2023-04-08T07:39:03;99514.81;;;8.64;92.04
21240;BME280;10778;48.962;9.018;2023-04-08T07:41:29;99524.31;;;8.90;90.40
21240;BME280;10778;48.962;9.018;2023-04-08T07:43:55;99523.00;;;9.41;93.78
21240;BME280;10778;48.962;9.018;2023-04-08T07:46:21;99523.63;;;9.33;91.94
21240;BME280;10778;48.962;9.018;2023-04-08T07:48:47;99534.31;;;8.85;91.48
21240;BME280;10778;48.962;9.018;2023-04-08T07:51:12;99534.31;;;8.96;91.33
21240;BME280;10778;48.962;9.018;2023-04-08T07:53:39;99539.47;;;8.98;90.07
21240;BME280;10778;48.962;9.018;2023-04-08T07:56:13;99535.91;;;9.10;90.47
21240;BME280;10778;48.962;9.018;2023-04-08T07:58:39;99549.38;;;9.05;89.39
21240;BME280;10778;48.962;9.018;2023-04-08T08:01:16;99541.16;;;9.21;85.99
21240;BME280;10778;48.962;9.018;2023-04-08T08:03:43;99545.84;;;9.52;88.34
21240;BME280;10778;48.962;9.018;2023-04-08T08:06:13;99544.13;;;9.74;85.19
21240;BME280;10778;48.962;9.018;2023-04-08T08:08:39;99542.47;;;9.73;84.99
21240;BME280;10778;48.962;9.018;2023-04-08T08:11:05;99544.06;;;10.73;83.37
21240;BME280;10778;48.962;9.018;2023-04-08T08:13:32;99542.16;;;10.75;79.13
21240;BME280;10778;48.962;9.018;2023-04-08T08:15:58;99537.34;;;11.74;76.41
21240;BME280;10778;48.962;9.018;2023-04-08T08:18:24;99543.00;;;11.69;75.65
21240;BME280;10778;48.962;9.018;2023-04-08T08:20:50;99543.59;;;11.10;74.62
21240;BME280;10778;48.962;9.018;2023-04-08T08:23:16;99546.50;;;11.07;75.14
21240;BME280;10778;48.962;9.018;2023-04-08T08:25:42;99536.06;;;11.27;75.40
21240;BME280;10778;48.962;9.018;2023-04-08T08:28:08;99538.16;;;11.74;74.60
21240;BME280;10778;48.962;9.018;2023-04-08T08:30:34;99545.16;;;11.54;74.66
21240;BME280;10778;48.962;9.018;2023-04-08T08:33:00;99545.75;;;11.58;74.86
21240;BME280;10778;48.962;9.018;2023-04-08T08:35:26;99542.66;;;11.93;73.10
21240;BME280;10778;48.962;9.018;2023-04-08T08:37:52;99549.56;;;11.85;72.27
21240;BME280;10778;48.962;9.018;2023-04-08T08:40:18;99547.84;;;12.15;71.45
21240;BME280;10778;48.962;9.018;2023-04-08T08:42:49;99545.47;;;12.21;70.69
21240;BME280;10778;48.962;9.018;2023-04-08T08:45:18;99553.56;;;12.49;70.72
21240;BME280;10778;48.962;9.018;2023-04-08T08:47:45;99546.28;;;12.81;70.59
21240;BME280;10778;48.962;9.018;2023-04-08T08:50:11;99545.91;;;12.66;69.68
21240;BME280;10778;48.962;9.018;2023-04-08T08:52:37;99552.72;;;12.69;69.76
21240;BME280;10778;48.962;9.018;2023-04-08T08:55:03;99553.44;;;12.61;69.13
21240;BME280;10778;48.962;9.018;2023-04-08T08:57:29;99561.22;;;11.82;70.22
21240;BME280;10778;48.962;9.018;2023-04-08T08:59:56;99563.66;;;12.15;71.45
21240;BME280;10778;48.962;9.018;2023-04-08T09:02:24;99566.47;;;12.23;70.42
21240;BME280;10778;48.962;9.018;2023-04-08T09:05:02;99560.69;;;13.06;67.61
21240;BME280;10778;48.962;9.018;2023-04-08T09:07:30;99564.75;;;12.91;67.55
21240;BME280;10778;48.962;9.018;2023-04-08T09:09:58;99555.88;;;13.40;65.70
21240;BME280;10778;48.962;9.018;2023-04-08T09:12:24;99553.53;;;13.46;64.78
21240;BME280;10778;48.962;9.018;2023-04-08T09:15:02;99558.69;;;12.61;64.80
21240;BME280;10778;48.962;9.018;2023-04-08T09:17:36;99563.78;;;12.92;66.18
21240;BME280;10778;48.962;9.018;2023-04-08T09:23:00;99564.25;;;12.48;66.54
21240;BME280;10778;48.962;9.018;2023-04-08T09:25:28;99559.13;;;12.36;66.79
21240;BME280;10778;48.962;9.018;2023-04-08T09:27:54;99557.84;;;12.21;66.56
21240;BME280;10778;48.962;9.018;2023-04-08T09:30:23;99564.41;;;12.46;66.13
21240;BME280;10778;48.962;9.018;2023-04-08T09:32:51;99567.16;;;12.55;66.34
21240;BME280;10778;48.962;9.018;2023-04-08T09:35:18;99556.28;;;12.97;59.86
21240;BME280;10778;48.962;9.018;2023-04-08T09:37:45;99559.66;;;12.70;55.89
21240;BME280;10778;48.962;9.018;2023-04-08T09:40:12;99565.63;;;12.32;56.47
21240;BME280;10778;48.962;9.018;2023-04-08T09:42:43;99566.47;;;12.33;57.51
21240;BME280;10778;48.962;9.018;2023-04-08T09:45:10;99572.81;;;12.11;56.84
21240;BME280;10778;48.962;9.018;2023-04-08T09:47:54;99564.81;;;12.22;56.79
21240;BME280;10778;48.962;9.018;2023-04-08T09:50:26;99562.13;;;12.02;57.47
21240;BME280;10778;48.962;9.018;2023-04-08T09:52:59;99565.63;;;12.32;57.61
21240;BME280;10778;48.962;9.018;2023-04-08T09:55:29;99568.13;;;12.63;58.41
21240;BME280;10778;48.962;9.018;2023-04-08T09:58:08;99565.09;;;12.29;60.12
21240;BME280;10778;48.962;9.018;2023-04-08T10:00:42;99566.47;;;12.52;58.71
21240;BME280;10778;48.962;9.018;2023-04-08T10:03:28;99564.78;;;12.81;55.76
21240;BME280;10778;48.962;9.018;2023-04-08T10:05:57;99570.06;;;12.81;55.28
21240;BME280;10778;48.962;9.018;2023-04-08T10:08:24;99563.41;;;12.57;57.63
21240;BME280;10778;48.962;9.018;2023-04-08T10:10:53;99566.47;;;12.72;56.37
21240;BME280;10778;48.962;9.018;2023-04-08T10:13:19;99566.63;;;12.61;57.01
21240;BME280;10778;48.962;9.018;2023-04-08T10:15:46;99567.72;;;12.48;56.21
21240;BME280;10778;48.962;9.018;2023-04-08T10:20:47;99565.88;;;11.69;57.38
21240;BME280;10778;48.962;9.018;2023-04-08T10:23:15;99571.81;;;11.61;57.95
21240;BME280;10778;48.962;9.018;2023-04-08T10:33:09;99558.63;;;11.51;60.33
21240;BME280;10778;48.962;9.018;2023-04-08T10:35:36;99563.53;;;11.34;61.36
21240;BME280;10778;48.962;9.018;2023-04-08T10:38:02;99559.69;;;11.38;58.85
21240;BME280;10778;48.962;9.018;2023-04-08T10:40:34;99568.53;;;11.37;60.22
21240;BME280;10778;48.962;9.018;2023-04-08T10:43:03;99562.22;;;11.50;60.84
21240;BME280;10778;48.962;9.018;2023-04-08T10:45:33;99567.66;;;11.58;60.18
21240;BME280;10778;48.962;9.018;2023-04-08T10:48:18;99566.97;;;11.56;57.27
21240;BME280;10778;48.962;9.018;2023-04-08T10:50:55;99567.75;;;11.47;59.98
21240;BME280;10778;48.962;9.018;2023-04-08T10:53:28;99563.75;;;11.52;59.14
21240;BME280;10778;48.962;9.018;2023-04-08T10:56:05;99556.91;;;11.40;59.03
21240;BME280;10778;48.962;9.018;2023-04-08T10:58:33;99562.19;;;11.19;59.75
21240;BME280;10778;48.962;9.018;2023-04-08T11:01:06;99565.03;;;11.27;60.51
21240;BME280;10778;48.962;9.018;2023-04-08T11:03:34;99564.06;;;11.28;59.72
21240;BME280;10778;48.962;9.018;2023-04-08T11:06:01;99554.66;;;11.35;59.08
21240;BME280;10778;48.962;9.018;2023-04-08T11:08:28;99562.56;;;11.04;58.56
21240;BME280;10778;48.962;9.018;2023-04-08T11:10:54;99560.69;;;11.16;59.68
21240;BME280;10778;48.962;9.018;2023-04-08T11:13:21;99571.34;;;11.46;59.60
21240;BME280;10778;48.962;9.018;2023-04-08T11:15:49;99564.22;;;11.36;60.18
21240;BME280;10778;48.962;9.018;2023-04-08T11:18:15;99566.31;;;11.33;61.05
21240;BME280;10778;48.962;9.018;2023-04-08T11:20:43;99560.09;;;11.13;60.76
21240;BME280;10778;48.962;9.018;2023-04-08T11:23:13;99577.56;;;11.14;60.94
21240;BME280;10778;48.962;9.018;2023-04-08T11:25:40;99569.56;;;11.15;63.13
21240;BME280;10778;48.962;9.018;2023-04-08T11:28:07;99561.34;;;11.08;62.53
21240;BME280;10778;48.962;9.018;2023-04-08T11:30:33;99560.75;;;11.05;63.62
21240;BME280;10778;48.962;9.018;2023-04-08T11:33:00;99562.53;;;11.26;63.56
21240;BME280;10778;48.962;9.018;2023-04-08T11:35:29;99563.91;;;10.99;63.05
21240;BME280;10778;48.962;9.018;2023-04-08T11:37:56;99554.53;;;10.85;63.53
21240;BME280;10778;48.962;9.018;2023-04-08T11:40:23;99560.91;;;10.82;63.48
21240;BME280;10778;48.962;9.018;2023-04-08T11:42:50;99557.56;;;10.80;63.29
21240;BME280;10778;48.962;9.018;2023-04-08T11:45:18;99560.56;;;10.97;63.64
21240;BME280;10778;48.962;9.018;2023-04-08T11:47:47;99552.53;;;10.98;62.65
21240;BME280;10778;48.962;9.018;2023-04-08T11:50:31;99555.63;;;10.82;64.64
21240;BME280;10778;48.962;9.018;2023-04-08T11:52:57;99552.22;;;10.70;63.45
21240;BME280;10778;48.962;9.018;2023-04-08T11:55:26;99554.13;;;10.89;63.96
21240;BME280;10778;48.962;9.018;2023-04-08T11:57:53;99559.03;;;10.94;63.45
21240;BME280;10778;48.962;9.018;2023-04-08T12:00:20;99556.19;;;10.86;63.07
21240;BME280;10778;48.962;9.018;2023-04-08T12:02:47;99561.34;;;10.87;62.64
21240;BME280;10778;48.962;9.018;2023-04-08T12:05:14;99563.50;;;10.61;62.27
21240;BME280;10778;48.962;9.018;2023-04-08T12:07:41;99561.66;;;10.40;62.30
21240;BME280;10778;48.962;9.018;2023-04-08T12:10:08;99564.06;;;10.32;63.19
21240;BME280;10778;48.962;9.018;2023-04-08T12:12:36;99560.66;;;10.52;65.11
21240;BME280;10778;48.962;9.018;2023-04-08T12:15:02;99566.31;;;10.36;64.62
21240;BME280;10778;48.962;9.018;2023-04-08T12:17:29;99570.75;;;10.36;64.91
21240;BME280;10778;48.962;9.018;2023-04-08T12:19:56;99569.91;;;10.35;64.25
21240;BME280;10778;48.962;9.018;2023-04-08T12:22:23;99576.94;;;10.35;65.04
21240;BME280;10778;48.962;9.018;2023-04-08T12:24:51;99568.41;;;10.21;64.32
21240;BME280;10778;48.962;9.018;2023-04-08T12:27:18;99571.38;;;10.28;64.35
21240;BME280;10778;48.962;9.018;2023-04-08T12:29:45;99575.78;;;10.28;65.25
21240;BME280;10778;48.962;9.018;2023-04-08T12:32:12;99573.78;;;10.20;64.48
21240;BME280;10778;48.962;9.018;2023-04-08T12:34:38;99574.06;;;10.49;64.09
21240;BME280;10778;48.962;9.018;2023-04-08T12:37:04;99575.88;;;10.37;64.99
21240;BME280;10778;48.962;9.018;2023-04-08T12:39:30;99579.59;;;10.35;65.00
21240;BME280;10778;48.962;9.018;2023-04-08T12:41:56;99577.91;;;10.45;65.44
21240;BME280;10778;48.962;9.018;2023-04-08T12:44:22;99577.81;;;10.47;66.08
21240;BME280;10778;48.962;9.018;2023-04-08T12:46:48;99583.16;;;10.57;66.08
21240;BME280;10778;48.962;9.018;2023-04-08T12:49:15;99576.78;;;10.59;64.36
21240;BME280;10778;48.962;9.018;2023-04-08T12:51:41;99574.09;;;10.71;64.62
21240;BME280;10778;48.962;9.018;2023-04-08T12:54:06;99563.97;;;10.87;64.34
21240;BME280;10778;48.962;9.018;2023-04-08T12:56:33;99562.16;;;11.09;62.47
21240;BME280;10778;48.962;9.018;2023-04-08T12:58:59;99559.94;;;11.35;62.14
21240;BME280;10778;48.962;9.018;2023-04-08T13:01:26;99558.38;;;11.64;60.73
21240;BME280;10778;48.962;9.018;2023-04-08T13:03:52;99557.59;;;11.83;61.37
21240;BME280;10778;48.962;9.018;2023-04-08T13:06:19;99563.81;;;11.72;62.83
21240;BME280;10778;48.962;9.018;2023-04-08T13:08:45;99563.59;;;11.54;61.89
21240;BME280;10778;48.962;9.018;2023-04-08T13:11:12;99568.69;;;11.77;60.00
21240;BME280;10778;48.962;9.018;2023-04-08T13:13:38;99563.13;;;11.70;62.87
21240;BME280;10778;48.962;9.018;2023-04-08T13:16:04;99566.13;;;11.56;61.96